sensor_id;sensor_type;location;lat;lon;timestamp;P1;durP1;ratioP1;P2;durP2;ratioP2
66118;SDS011;52912;48.564;9.302;2024-02-23T00:00:12;0.30;;;0.30;;
66118;SDS011;52912;48.564;9.302;2024-02-23T00:02:38;0.30;;;0.30;;
66118;SDS011;52912;48.564;9.302;2024-02-23T00:05:04;2.08;;;1.27;;
66118;SDS011;52912;48.564;9.302;2024-02-23T00:07:29;2.75;;;1.90;;
66118;SDS011;52912;48.564;9.302;2024-02-23T00:09:55;2.20;;;1.30;;
66118;SDS011;52912;48.564;9.302;2024-02-23T00:12:20;1.73;;;1.42;;
66118;SDS011;52912;48.564;9.302;2024-02-23T00:14:47;1.67;;;1.20;;
66118;SDS011;52912;48.564;9.302;2024-02-23T00:17:12;0.65;;;0.40;;
66118;SDS011;52912;48.564;9.302;2024-02-23T00:19:38;0.22;;;0.22;;
66118;SDS011;52912;48.564;9.302;2024-02-23T00:22:03;1.45;;;0.75;;
66118;SDS011;52912;48.564;9.302;2024-02-23T00:24:29;0.65;;;0.30;;
66118;SDS011;52912;48.564;9.302;2024-02-23T00:26:54;0.30;;;0.22;;
66118;SDS011;52912;48.564;9.302;2024-02-23T00:29:20;1.45;;;0.45;;
66118;SDS011;52912;48.564;9.302;2024-02-23T00:31:46;0.88;;;0.50;;
66118;SDS011;52912;48.564;9.302;2024-02-23T00:34:12;0.47;;;0.40;;
66118;SDS011;52912;48.564;9.302;2024-02-23T00:36:38;1.65;;;0.50;;
66118;SDS011;52912;48.564;9.302;2024-02-23T00:39:06;0.25;;;0.25;;
66118;SDS011;52912;48.564;9.302;2024-02-23T00:41:32;0.57;;;0.20;;
66118;SDS011;52912;48.564;9.302;2024-02-23T00:43:57;0.30;;;0.30;;
66118;SDS011;52912;48.564;9.302;2024-02-23T00:46:22;3.92;;;0.47;;
66118;SDS011;52912;48.564;9.302;2024-02-23T00:48:49;1.00;;;0.30;;
66118;SDS011;52912;48.564;9.302;2024-02-23T00:51:15;0.70;;;0.60;;
66118;SDS011;52912;48.564;9.302;2024-02-23T00:53:40;1.75;;;0.50;;
66118;SDS011;52912;48.564;9.302;2024-02-23T00:56:06;2.67;;;0.40;;
66118;SDS011;52912;48.564;9.302;2024-02-23T00:58:32;1.55;;;0.60;;
66118;SDS011;52912;48.564;9.302;2024-02-23T01:00:57;3.25;;;0.55;;
66118;SDS011;52912;48.564;9.302;2024-02-23T01:03:22;1.17;;;0.52;;
66118;SDS011;52912;48.564;9.302;2024-02-23T01:05:49;2.55;;;0.65;;
66118;SDS011;52912;48.564;9.302;2024-02-23T01:08:15;0.63;;;0.45;;
66118;SDS011;52912;48.564;9.302;2024-02-23T01:10:40;2.40;;;0.50;;
66118;SDS011;52912;48.564;9.302;2024-02-23T01:13:06;1.15;;;0.60;;
66118;SDS011;52912;48.564;9.302;2024-02-23T01:15:31;3.85;;;0.50;;
66118;SDS011;52912;48.564;9.302;2024-02-23T01:17:57;0.75;;;0.50;;
66118;SDS011;52912;48.564;9.302;2024-02-23T01:20:22;0.82;;;0.52;;
66118;SDS011;52912;48.564;9.302;2024-02-23T01:22:49;1.10;;;0.50;;
66118;SDS011;52912;48.564;9.302;2024-02-23T01:25:14;3.08;;;0.50;;
66118;SDS011;52912;48.564;9.302;2024-02-23T01:27:40;1.35;;;0.40;;
66118;SDS011;52912;48.564;9.302;2024-02-23T01:30:06;3.63;;;0.50;;
66118;SDS011;52912;48.564;9.302;2024-02-23T01:32:32;2.90;;;0.38;;
66118;SDS011;52912;48.564;9.302;2024-02-23T01:34:57;0.70;;;0.50;;
66118;SDS011;52912;48.564;9.302;2024-02-23T01:37:23;1.13;;;0.60;;
66118;SDS011;52912;48.564;9.302;2024-02-23T01:39:49;0.25;;;0.25;;
66118;SDS011;52912;48.564;9.302;2024-02-23T01:42:15;0.63;;;0.30;;
66118;SDS011;52912;48.564;9.302;2024-02-23T01:44:40;2.00;;;0.70;;
66118;SDS011;52912;48.564;9.302;2024-02-23T01:47:06;3.33;;;0.65;;
66118;SDS011;52912;48.564;9.302;2024-02-23T01:49:32;3.92;;;0.50;;
66118;SDS011;52912;48.564;9.302;2024-02-23T01:51:58;2.03;;;0.50;;
66118;SDS011;52912;48.564;9.302;2024-02-23T01:54:23;1.25;;;0.50;;
66118;SDS011;52912;48.564;9.302;2024-02-23T01:56:51;0.30;;;0.30;;
66118;SDS011;52912;48.564;9.302;2024-02-23T01:59:17;2.25;;;0.30;;
66118;SDS011;52912;48.564;9.302;2024-02-23T02:01:43;1.27;;;0.50;;
66118;SDS011;52912;48.564;9.302;2024-02-23T02:04:08;1.23;;;0.35;;
66118;SDS011;52912;48.564;9.302;2024-02-23T02:06:34;0.70;;;0.30;;
66118;SDS011;52912;48.564;9.302;2024-02-23T02:09:02;1.40;;;0.45;;
66118;SDS011;52912;48.564;9.302;2024-02-23T02:11:27;1.48;;;0.50;;
66118;SDS011;52912;48.564;9.302;2024-02-23T02:13:54;0.95;;;0.32;;
66118;SDS011;52912;48.564;9.302;2024-02-23T02:16:19;1.50;;;0.60;;
66118;SDS011;52912;48.564;9.302;2024-02-23T02:18:45;0.77;;;0.30;;
66118;SDS011;52912;48.564;9.302;2024-02-23T02:21:10;0.20;;;0.20;;
66118;SDS011;52912;48.564;9.302;2024-02-23T02:23:36;1.10;;;0.30;;
66118;SDS011;52912;48.564;9.302;2024-02-23T02:26:02;0.63;;;0.20;;
66118;SDS011;52912;48.564;9.302;2024-02-23T02:28:27;1.83;;;1.38;;
66118;SDS011;52912;48.564;9.302;2024-02-23T02:30:54;1.00;;;1.00;;
66118;SDS011;52912;48.564;9.302;2024-02-23T02:33:19;1.92;;;0.90;;
66118;SDS011;52912;48.564;9.302;2024-02-23T02:35:45;4.38;;;1.58;;
66118;SDS011;52912;48.564;9.302;2024-02-23T02:38:10;1.35;;;1.10;;
66118;SDS011;52912;48.564;9.302;2024-02-23T02:40:36;0.57;;;0.30;;
66118;SDS011;52912;48.564;9.302;2024-02-23T02:43:02;4.93;;;1.80;;
66118;SDS011;52912;48.564;9.302;2024-02-23T02:45:27;0.70;;;0.60;;
66118;SDS011;52912;48.564;9.302;2024-02-23T02:47:56;1.10;;;0.70;;
66118;SDS011;52912;48.564;9.302;2024-02-23T02:50:21;0.40;;;0.40;;
66118;SDS011;52912;48.564;9.302;2024-02-23T02:52:47;1.40;;;0.82;;
66118;SDS011;52912;48.564;9.302;2024-02-23T02:55:12;0.43;;;0.43;;
66118;SDS011;52912;48.564;9.302;2024-02-23T02:57:38;1.27;;;0.60;;
66118;SDS011;52912;48.564;9.302;2024-02-23T03:00:04;1.83;;;0.45;;
66118;SDS011;52912;48.564;9.302;2024-02-23T03:02:31;1.77;;;0.65;;
66118;SDS011;52912;48.564;9.302;2024-02-23T03:04:57;0.30;;;0.30;;
66118;SDS011;52912;48.564;9.302;2024-02-23T03:07:23;0.73;;;0.45;;
66118;SDS011;52912;48.564;9.302;2024-02-23T03:09:48;1.70;;;0.73;;
66118;SDS011;52912;48.564;9.302;2024-02-23T03:12:14;0.30;;;0.30;;
66118;SDS011;52912;48.564;9.302;2024-02-23T03:14:39;0.63;;;0.30;;
66118;SDS011;52912;48.564;9.302;2024-02-23T03:17:05;1.42;;;0.40;;
66118;SDS011;52912;48.564;9.302;2024-02-23T03:19:31;0.70;;;0.60;;
66118;SDS011;52912;48.564;9.302;2024-02-23T03:21:58;0.32;;;0.30;;
66118;SDS011;52912;48.564;9.302;2024-02-23T03:24:23;1.13;;;0.43;;
66118;SDS011;52912;48.564;9.302;2024-02-23T03:26:49;2.30;;;0.80;;
66118;SDS011;52912;48.564;9.302;2024-02-23T03:29:14;0.40;;;0.40;;
66118;SDS011;52912;48.564;9.302;2024-02-23T03:31:40;1.30;;;0.60;;
66118;SDS011;52912;48.564;9.302;2024-02-23T03:34:05;0.28;;;0.28;;
66118;SDS011;52912;48.564;9.302;2024-02-23T03:36:31;0.57;;;0.40;;
66118;SDS011;52912;48.564;9.302;2024-02-23T03:38:57;0.65;;;0.35;;
66118;SDS011;52912;48.564;9.302;2024-02-23T03:41:23;0.35;;;0.35;;
66118;SDS011;52912;48.564;9.302;2024-02-23T03:43:48;0.30;;;0.30;;
66118;SDS011;52912;48.564;9.302;2024-02-23T03:46:14;2.33;;;0.38;;
66118;SDS011;52912;48.564;9.302;2024-02-23T03:48:39;0.95;;;0.40;;
66118;SDS011;52912;48.564;9.302;2024-02-23T03:51:05;1.70;;;0.50;;
66118;SDS011;52912;48.564;9.302;2024-02-23T03:53:31;1.40;;;0.75;;
66118;SDS011;52912;48.564;9.302;2024-02-23T03:55:58;1.27;;;0.52;;
66118;SDS011;52912;48.564;9.302;2024-02-23T03:58:23;1.67;;;0.43;;
66118;SDS011;52912;48.564;9.302;2024-02-23T04:00:49;0.40;;;0.40;;
66118;SDS011;52912;48.564;9.302;2024-02-23T04:03:14;0.30;;;0.30;;
66118;SDS011;52912;48.564;9.302;2024-02-23T04:05:40;1.13;;;0.47;;
66118;SDS011;52912;48.564;9.302;2024-02-23T04:08:05;0.60;;;0.45;;
66118;SDS011;52912;48.564;9.302;2024-02-23T04:10:31;0.35;;;0.30;;
66118;SDS011;52912;48.564;9.302;2024-02-23T04:12:58;0.70;;;0.60;;
66118;SDS011;52912;48.564;9.302;2024-02-23T04:15:24;1.52;;;0.50;;
66118;SDS011;52912;48.564;9.302;2024-02-23T04:17:50;1.40;;;0.40;;
66118;SDS011;52912;48.564;9.302;2024-02-23T04:20:15;1.00;;;0.57;;
66118;SDS011;52912;48.564;9.302;2024-02-23T04:22:41;2.92;;;0.50;;
66118;SDS011;52912;48.564;9.302;2024-02-23T04:25:06;1.08;;;0.45;;
66118;SDS011;52912;48.564;9.302;2024-02-23T04:27:32;1.75;;;0.40;;
66118;SDS011;52912;48.564;9.302;2024-02-23T04:29:59;1.05;;;0.88;;
66118;SDS011;52912;48.564;9.302;2024-02-23T04:32:24;0.63;;;0.60;;
66118;SDS011;52912;48.564;9.302;2024-02-23T04:34:50;1.42;;;0.70;;
66118;SDS011;52912;48.564;9.302;2024-02-23T04:37:15;1.17;;;0.55;;
66118;SDS011;52912;48.564;9.302;2024-02-23T04:39:43;1.88;;;0.50;;
66118;SDS011;52912;48.564;9.302;2024-02-23T04:42:08;3.75;;;0.90;;
66118;SDS011;52912;48.564;9.302;2024-02-23T04:44:34;0.75;;;0.70;;
66118;SDS011;52912;48.564;9.302;2024-02-23T04:47:01;0.68;;;0.68;;
66118;SDS011;52912;48.564;9.302;2024-02-23T04:49:26;0.80;;;0.80;;
66118;SDS011;52912;48.564;9.302;2024-02-23T04:51:52;1.92;;;1.05;;
66118;SDS011;52912;48.564;9.302;2024-02-23T04:54:17;5.97;;;1.60;;
66118;SDS011;52912;48.564;9.302;2024-02-23T04:56:44;3.08;;;1.90;;
66118;SDS011;52912;48.564;9.302;2024-02-23T04:59:09;3.97;;;1.80;;
66118;SDS011;52912;48.564;9.302;2024-02-23T05:01:35;13.60;;;10.13;;
66118;SDS011;52912;48.564;9.302;2024-02-23T05:04:02;8.90;;;5.43;;
66118;SDS011;52912;48.564;9.302;2024-02-23T05:06:27;11.30;;;7.78;;
66118;SDS011;52912;48.564;9.302;2024-02-23T05:08:53;9.48;;;5.72;;
66118;SDS011;52912;48.564;9.302;2024-02-23T05:11:18;4.45;;;3.92;;
66118;SDS011;52912;48.564;9.302;2024-02-23T05:13:44;5.15;;;4.15;;
66118;SDS011;52912;48.564;9.302;2024-02-23T05:16:09;10.65;;;6.28;;
66118;SDS011;52912;48.564;9.302;2024-02-23T05:18:35;8.82;;;5.88;;
66118;SDS011;52912;48.564;9.302;2024-02-23T05:21:02;11.00;;;7.03;;
66118;SDS011;52912;48.564;9.302;2024-02-23T05:23:27;5.07;;;1.85;;
66118;SDS011;52912;48.564;9.302;2024-02-23T05:25:53;3.08;;;0.98;;
66118;SDS011;52912;48.564;9.302;2024-02-23T05:28:18;2.75;;;1.00;;
66118;SDS011;52912;48.564;9.302;2024-02-23T05:30:44;1.70;;;1.10;;
66118;SDS011;52912;48.564;9.302;2024-02-23T05:33:09;5.82;;;1.00;;
66118;SDS011;52912;48.564;9.302;2024-02-23T05:35:34;5.00;;;2.03;;
66118;SDS011;52912;48.564;9.302;2024-02-23T05:38:01;2.33;;;1.30;;
66118;SDS011;52912;48.564;9.302;2024-02-23T05:40:27;1.25;;;0.80;;
66118;SDS011;52912;48.564;9.302;2024-02-23T05:42:52;1.38;;;0.90;;
66118;SDS011;52912;48.564;9.302;2024-02-23T05:45:17;1.45;;;0.80;;
66118;SDS011;52912;48.564;9.302;2024-02-23T05:47:43;1.20;;;0.80;;
66118;SDS011;52912;48.564;9.302;2024-02-23T05:50:08;1.48;;;1.10;;
66118;SDS011;52912;48.564;9.302;2024-02-23T05:52:34;3.85;;;0.93;;
66118;SDS011;52912;48.564;9.302;2024-02-23T05:55:01;1.60;;;0.80;;
66118;SDS011;52912;48.564;9.302;2024-02-23T05:57:27;1.42;;;1.08;;
66118;SDS011;52912;48.564;9.302;2024-02-23T05:59:53;1.60;;;1.00;;
66118;SDS011;52912;48.564;9.302;2024-02-23T06:02:18;1.20;;;0.75;;
66118;SDS011;52912;48.564;9.302;2024-02-23T06:04:44;3.70;;;1.00;;
66118;SDS011;52912;48.564;9.302;2024-02-23T06:07:09;3.83;;;1.10;;
66118;SDS011;52912;48.564;9.302;2024-02-23T06:09:35;1.80;;;0.93;;
66118;SDS011;52912;48.564;9.302;2024-02-23T06:12:01;3.72;;;1.05;;
66118;SDS011;52912;48.564;9.302;2024-02-23T06:14:27;1.20;;;0.98;;
66118;SDS011;52912;48.564;9.302;2024-02-23T06:16:52;2.95;;;0.95;;
66118;SDS011;52912;48.564;9.302;2024-02-23T06:19:18;2.00;;;0.80;;
66118;SDS011;52912;48.564;9.302;2024-02-23T06:21:44;3.55;;;1.15;;
66118;SDS011;52912;48.564;9.302;2024-02-23T06:24:12;3.13;;;1.23;;
66118;SDS011;52912;48.564;9.302;2024-02-23T06:26:38;2.63;;;1.30;;
66118;SDS011;52912;48.564;9.302;2024-02-23T06:29:04;4.53;;;1.65;;
66118;SDS011;52912;48.564;9.302;2024-02-23T06:31:30;4.63;;;2.25;;
66118;SDS011;52912;48.564;9.302;2024-02-23T06:33:55;3.58;;;1.63;;
66118;SDS011;52912;48.564;9.302;2024-02-23T06:36:21;4.43;;;2.28;;
66118;SDS011;52912;48.564;9.302;2024-02-23T06:38:46;1.63;;;1.10;;
66118;SDS011;52912;48.564;9.302;2024-02-23T06:41:12;5.78;;;1.90;;
66118;SDS011;52912;48.564;9.302;2024-02-23T06:43:37;2.40;;;1.27;;
66118;SDS011;52912;48.564;9.302;2024-02-23T06:46:05;4.47;;;1.25;;
66118;SDS011;52912;48.564;9.302;2024-02-23T06:48:31;2.28;;;0.90;;
66118;SDS011;52912;48.564;9.302;2024-02-23T06:50:57;3.20;;;1.10;;
66118;SDS011;52912;48.564;9.302;2024-02-23T06:53:22;2.45;;;1.20;;
66118;SDS011;52912;48.564;9.302;2024-02-23T06:55:48;4.93;;;1.13;;
66118;SDS011;52912;48.564;9.302;2024-02-23T06:58:13;3.28;;;1.30;;
66118;SDS011;52912;48.564;9.302;2024-02-23T07:00:39;2.65;;;1.42;;
66118;SDS011;52912;48.564;9.302;2024-02-23T07:03:06;3.50;;;1.38;;
66118;SDS011;52912;48.564;9.302;2024-02-23T07:05:31;6.05;;;1.60;;
66118;SDS011;52912;48.564;9.302;2024-02-23T07:07:56;3.03;;;1.00;;
66118;SDS011;52912;48.564;9.302;2024-02-23T07:10:22;1.20;;;0.70;;
66118;SDS011;52912;48.564;9.302;2024-02-23T07:12:47;3.13;;;1.30;;
66118;SDS011;52912;48.564;9.302;2024-02-23T07:15:13;4.68;;;1.05;;
66118;SDS011;52912;48.564;9.302;2024-02-23T07:17:39;4.93;;;0.82;;
66118;SDS011;52912;48.564;9.302;2024-02-23T07:20:06;0.95;;;0.85;;
66118;SDS011;52912;48.564;9.302;2024-02-23T07:22:32;3.97;;;1.02;;
66118;SDS011;52912;48.564;9.302;2024-02-23T07:24:57;1.27;;;0.80;;
66118;SDS011;52912;48.564;9.302;2024-02-23T07:27:23;3.60;;;1.20;;
66118;SDS011;52912;48.564;9.302;2024-02-23T07:29:48;2.67;;;1.10;;
66118;SDS011;52912;48.564;9.302;2024-02-23T07:32:14;5.15;;;3.70;;
66118;SDS011;52912;48.564;9.302;2024-02-23T07:34:39;6.80;;;4.05;;
66118;SDS011;52912;48.564;9.302;2024-02-23T07:37:06;7.00;;;1.50;;
66118;SDS011;52912;48.564;9.302;2024-02-23T07:39:31;1.15;;;1.05;;
66118;SDS011;52912;48.564;9.302;2024-02-23T07:41:57;1.73;;;1.40;;
66118;SDS011;52912;48.564;9.302;2024-02-23T07:44:22;2.70;;;1.10;;
66118;SDS011;52912;48.564;9.302;2024-02-23T07:46:48;2.47;;;1.45;;
66118;SDS011;52912;48.564;9.302;2024-02-23T07:49:13;3.63;;;1.40;;
66118;SDS011;52912;48.564;9.302;2024-02-23T07:51:39;5.93;;;1.80;;
66118;SDS011;52912;48.564;9.302;2024-02-23T07:54:05;2.60;;;1.42;;
66118;SDS011;52912;48.564;9.302;2024-02-23T07:56:31;4.15;;;1.65;;
66118;SDS011;52912;48.564;9.302;2024-02-23T07:58:56;2.50;;;1.17;;
66118;SDS011;52912;48.564;9.302;2024-02-23T08:01:22;4.68;;;1.70;;
66118;SDS011;52912;48.564;9.302;2024-02-23T08:03:47;3.38;;;1.17;;
66118;SDS011;52912;48.564;9.302;2024-02-23T08:06:13;2.83;;;1.13;;
66118;SDS011;52912;48.564;9.302;2024-02-23T08:08:38;1.98;;;1.00;;
66118;SDS011;52912;48.564;9.302;2024-02-23T08:11:05;2.60;;;1.20;;
66118;SDS011;52912;48.564;9.302;2024-02-23T08:13:30;3.53;;;1.75;;
66118;SDS011;52912;48.564;9.302;2024-02-23T08:15:56;5.20;;;1.70;;
66118;SDS011;52912;48.564;9.302;2024-02-23T08:18:22;8.75;;;5.13;;
66118;SDS011;52912;48.564;9.302;2024-02-23T08:20:47;2.97;;;1.50;;
66118;SDS011;52912;48.564;9.302;2024-02-23T08:23:13;2.00;;;1.05;;
66118;SDS011;52912;48.564;9.302;2024-02-23T08:25:39;5.45;;;3.03;;
66118;SDS011;52912;48.564;9.302;2024-02-23T08:28:06;4.15;;;2.45;;
66118;SDS011;52912;48.564;9.302;2024-02-23T08:30:31;3.78;;;1.70;;
66118;SDS011;52912;48.564;9.302;2024-02-23T08:32:57;4.43;;;1.60;;
66118;SDS011;52912;48.564;9.302;2024-02-23T08:35:22;3.10;;;1.65;;
66118;SDS011;52912;48.564;9.302;2024-02-23T08:37:48;2.65;;;1.10;;
66118;SDS011;52912;48.564;9.302;2024-02-23T08:40:13;3.63;;;1.23;;
66118;SDS011;52912;48.564;9.302;2024-02-23T08:42:39;2.35;;;0.90;;
66118;SDS011;52912;48.564;9.302;2024-02-23T08:45:06;1.42;;;0.95;;
66118;SDS011;52912;48.564;9.302;2024-02-23T08:47:32;2.47;;;1.02;;
66118;SDS011;52912;48.564;9.302;2024-02-23T08:49:58;3.17;;;1.80;;
66118;SDS011;52912;48.564;9.302;2024-02-23T08:52:23;2.25;;;0.90;;
66118;SDS011;52912;48.564;9.302;2024-02-23T08:54:49;4.28;;;1.10;;
66118;SDS011;52912;48.564;9.302;2024-02-23T08:57:14;4.25;;;1.13;;
66118;SDS011;52912;48.564;9.302;2024-02-23T08:59:40;2.05;;;0.95;;
66118;SDS011;52912;48.564;9.302;2024-02-23T09:02:06;1.55;;;0.88;;
66118;SDS011;52912;48.564;9.302;2024-02-23T09:04:32;3.95;;;1.00;;
66118;SDS011;52912;48.564;9.302;2024-02-23T09:06:57;2.45;;;1.20;;
66118;SDS011;52912;48.564;9.302;2024-02-23T09:09:23;6.15;;;1.35;;
66118;SDS011;52912;48.564;9.302;2024-02-23T09:11:48;1.70;;;1.00;;
66118;SDS011;52912;48.564;9.302;2024-02-23T09:14:14;4.85;;;1.10;;
66118;SDS011;52912;48.564;9.302;2024-02-23T09:16:39;3.22;;;1.02;;
66118;SDS011;52912;48.564;9.302;2024-02-23T09:19:06;2.22;;;1.10;;
66118;SDS011;52912;48.564;9.302;2024-02-23T09:21:32;3.40;;;1.40;;
66118;SDS011;52912;48.564;9.302;2024-02-23T09:23:57;3.92;;;1.20;;
66118;SDS011;52912;48.564;9.302;2024-02-23T09:26:22;3.53;;;1.20;;
66118;SDS011;52912;48.564;9.302;2024-02-23T09:28:48;3.25;;;1.35;;
66118;SDS011;52912;48.564;9.302;2024-02-23T09:31:13;1.85;;;1.10;;
66118;SDS011;52912;48.564;9.302;2024-02-23T09:33:39;0.75;;;0.70;;
66118;SDS011;52912;48.564;9.302;2024-02-23T09:36:06;4.93;;;0.90;;
66118;SDS011;52912;48.564;9.302;2024-02-23T09:38:33;3.83;;;0.98;;
66118;SDS011;52912;48.564;9.302;2024-02-23T09:40:59;2.85;;;1.05;;
66118;SDS011;52912;48.564;9.302;2024-02-23T09:43:24;5.40;;;1.13;;
66118;SDS011;52912;48.564;9.302;2024-02-23T09:45:54;3.72;;;1.00;;
66118;SDS011;52912;48.564;9.302;2024-02-23T09:48:21;2.75;;;1.00;;
66118;SDS011;52912;48.564;9.302;2024-02-23T09:50:47;1.77;;;0.85;;
66118;SDS011;52912;48.564;9.302;2024-02-23T09:53:16;3.58;;;1.10;;
66118;SDS011;52912;48.564;9.302;2024-02-23T09:55:42;2.92;;;1.40;;
66118;SDS011;52912;48.564;9.302;2024-02-23T09:58:09;4.10;;;1.45;;
66118;SDS011;52912;48.564;9.302;2024-02-23T10:00:37;2.72;;;1.20;;
66118;SDS011;52912;48.564;9.302;2024-02-23T10:03:03;2.90;;;0.93;;
66118;SDS011;52912;48.564;9.302;2024-02-23T10:05:30;4.85;;;1.13;;
66118;SDS011;52912;48.564;9.302;2024-02-23T10:07:55;3.58;;;1.23;;
66118;SDS011;52912;48.564;9.302;2024-02-23T10:10:25;5.32;;;1.23;;
66118;SDS011;52912;48.564;9.302;2024-02-23T10:12:54;4.43;;;1.25;;
66118;SDS011;52912;48.564;9.302;2024-02-23T10:15:20;4.90;;;1.10;;
66118;SDS011;52912;48.564;9.302;2024-02-23T10:17:45;4.50;;;1.10;;
66118;SDS011;52912;48.564;9.302;2024-02-23T10:20:11;2.42;;;0.90;;
66118;SDS011;52912;48.564;9.302;2024-02-23T10:22:36;3.95;;;1.20;;
66118;SDS011;52912;48.564;9.302;2024-02-23T10:25:02;6.45;;;1.20;;
66118;SDS011;52912;48.564;9.302;2024-02-23T10:27:28;2.20;;;0.73;;
66118;SDS011;52912;48.564;9.302;2024-02-23T10:29:54;4.15;;;1.30;;
66118;SDS011;52912;48.564;9.302;2024-02-23T10:32:19;2.17;;;1.38;;
66118;SDS011;52912;48.564;9.302;2024-02-23T10:34:45;6.55;;;1.30;;
66118;SDS011;52912;48.564;9.302;2024-02-23T10:37:13;3.92;;;1.23;;
66118;SDS011;52912;48.564;9.302;2024-02-23T10:39:38;5.45;;;3.00;;
66118;SDS011;52912;48.564;9.302;2024-02-23T10:42:05;2.47;;;1.13;;
66118;SDS011;52912;48.564;9.302;2024-02-23T10:44:35;6.70;;;1.00;;
66118;SDS011;52912;48.564;9.302;2024-02-23T10:47:02;4.78;;;1.33;;
66118;SDS011;52912;48.564;9.302;2024-02-23T10:49:29;2.92;;;1.33;;
66118;SDS011;52912;48.564;9.302;2024-02-23T10:51:55;3.42;;;1.10;;
66118;SDS011;52912;48.564;9.302;2024-02-23T10:54:22;6.15;;;1.48;;
66118;SDS011;52912;48.564;9.302;2024-02-23T10:56:48;4.78;;;1.27;;
66118;SDS011;52912;48.564;9.302;2024-02-23T10:59:15;3.35;;;1.05;;
66118;SDS011;52912;48.564;9.302;2024-02-23T11:01:43;4.75;;;1.08;;
66118;SDS011;52912;48.564;9.302;2024-02-23T11:04:09;3.30;;;1.00;;
66118;SDS011;52912;48.564;9.302;2024-02-23T11:06:35;1.05;;;0.90;;
66118;SDS011;52912;48.564;9.302;2024-02-23T11:09:07;5.32;;;1.00;;
66118;SDS011;52912;48.564;9.302;2024-02-23T11:11:33;7.90;;;1.25;;
66118;SDS011;52912;48.564;9.302;2024-02-23T11:13:58;3.17;;;1.27;;
66118;SDS011;52912;48.564;9.302;2024-02-23T11:16:28;7.38;;;2.20;;
66118;SDS011;52912;48.564;9.302;2024-02-23T11:19:08;3.60;;;1.35;;
66118;SDS011;52912;48.564;9.302;2024-02-23T11:21:34;4.65;;;1.17;;
66118;SDS011;52912;48.564;9.302;2024-02-23T11:24:01;6.68;;;1.40;;
66118;SDS011;52912;48.564;9.302;2024-02-23T11:26:28;7.70;;;1.33;;
66118;SDS011;52912;48.564;9.302;2024-02-23T11:28:53;1.55;;;0.93;;
66118;SDS011;52912;48.564;9.302;2024-02-23T11:31:19;6.57;;;1.50;;
66118;SDS011;52912;48.564;9.302;2024-02-23T11:33:48;2.67;;;1.08;;
66118;SDS011;52912;48.564;9.302;2024-02-23T11:36:21;3.40;;;0.85;;
66118;SDS011;52912;48.564;9.302;2024-02-23T11:38:47;8.20;;;1.40;;
66118;SDS011;52912;48.564;9.302;2024-02-23T11:41:12;3.00;;;0.70;;
66118;SDS011;52912;48.564;9.302;2024-02-23T11:43:38;2.10;;;0.80;;
66118;SDS011;52912;48.564;9.302;2024-02-23T11:46:06;3.30;;;1.40;;
66118;SDS011;52912;48.564;9.302;2024-02-23T11:48:32;4.75;;;1.10;;
66118;SDS011;52912;48.564;9.302;2024-02-23T11:50:57;8.77;;;1.25;;
66118;SDS011;52912;48.564;9.302;2024-02-23T11:53:24;3.00;;;1.20;;
66118;SDS011;52912;48.564;9.302;2024-02-23T11:55:50;4.35;;;1.25;;
66118;SDS011;52912;48.564;9.302;2024-02-23T11:58:15;5.00;;;1.27;;
66118;SDS011;52912;48.564;9.302;2024-02-23T12:00:41;2.58;;;1.05;;
66118;SDS011;52912;48.564;9.302;2024-02-23T12:03:06;4.75;;;1.00;;
66118;SDS011;52912;48.564;9.302;2024-02-23T12:05:32;3.88;;;1.20;;
66118;SDS011;52912;48.564;9.302;2024-02-23T12:07:57;6.07;;;1.30;;
66118;SDS011;52912;48.564;9.302;2024-02-23T12:10:24;2.45;;;1.00;;
66118;SDS011;52912;48.564;9.302;2024-02-23T12:12:50;3.60;;;1.00;;
66118;SDS011;52912;48.564;9.302;2024-02-23T12:15:15;2.78;;;1.17;;
66118;SDS011;52912;48.564;9.302;2024-02-23T12:17:46;5.63;;;1.40;;
66118;SDS011;52912;48.564;9.302;2024-02-23T12:20:12;6.60;;;1.80;;
66118;SDS011;52912;48.564;9.302;2024-02-23T12:22:37;2.30;;;0.80;;
66118;SDS011;52912;48.564;9.302;2024-02-23T12:25:03;4.68;;;1.33;;
66118;SDS011;52912;48.564;9.302;2024-02-23T12:27:30;4.30;;;1.38;;
66118;SDS011;52912;48.564;9.302;2024-02-23T12:29:55;2.30;;;0.80;;
66118;SDS011;52912;48.564;9.302;2024-02-23T12:32:21;6.82;;;1.30;;
66118;SDS011;52912;48.564;9.302;2024-02-23T12:34:47;5.70;;;1.60;;
66118;SDS011;52912;48.564;9.302;2024-02-23T12:37:14;4.53;;;1.40;;
66118;SDS011;52912;48.564;9.302;2024-02-23T12:39:39;7.20;;;1.67;;
66118;SDS011;52912;48.564;9.302;2024-02-23T12:42:05;4.20;;;1.70;;
66118;SDS011;52912;48.564;9.302;2024-02-23T12:44:32;3.05;;;1.23;;
66118;SDS011;52912;48.564;9.302;2024-02-23T12:46:58;2.90;;;1.17;;
66118;SDS011;52912;48.564;9.302;2024-02-23T12:49:23;4.97;;;1.38;;
66118;SDS011;52912;48.564;9.302;2024-02-23T12:51:48;5.57;;;1.92;;
66118;SDS011;52912;48.564;9.302;2024-02-23T12:54:14;6.20;;;2.08;;
66118;SDS011;52912;48.564;9.302;2024-02-23T12:56:39;5.75;;;1.70;;
66118;SDS011;52912;48.564;9.302;2024-02-23T12:59:05;4.85;;;1.33;;
66118;SDS011;52912;48.564;9.302;2024-02-23T13:01:32;4.40;;;1.52;;
66118;SDS011;52912;48.564;9.302;2024-02-23T13:03:57;5.72;;;1.70;;
66118;SDS011;52912;48.564;9.302;2024-02-23T13:06:23;6.78;;;1.63;;
66118;SDS011;52912;48.564;9.302;2024-02-23T13:08:48;11.45;;;2.13;;
66118;SDS011;52912;48.564;9.302;2024-02-23T13:11:14;6.35;;;1.63;;
66118;SDS011;52912;48.564;9.302;2024-02-23T13:13:39;2.97;;;1.60;;
66118;SDS011;52912;48.564;9.302;2024-02-23T13:16:05;5.00;;;1.30;;
66118;SDS011;52912;48.564;9.302;2024-02-23T13:18:32;3.67;;;1.50;;
66118;SDS011;52912;48.564;9.302;2024-02-23T13:20:59;3.97;;;1.48;;
66118;SDS011;52912;48.564;9.302;2024-02-23T13:23:25;5.30;;;1.27;;
66118;SDS011;52912;48.564;9.302;2024-02-23T13:25:51;5.40;;;1.50;;
66118;SDS011;52912;48.564;9.302;2024-02-23T13:28:16;4.05;;;1.35;;
66118;SDS011;52912;48.564;9.302;2024-02-23T13:30:42;1.88;;;1.10;;
66118;SDS011;52912;48.564;9.302;2024-02-23T13:33:07;6.63;;;2.10;;
66118;SDS011;52912;48.564;9.302;2024-02-23T13:35:34;4.55;;;1.27;;
66118;SDS011;52912;48.564;9.302;2024-02-23T13:38:00;4.57;;;1.58;;
66118;SDS011;52912;48.564;9.302;2024-02-23T13:40:25;4.20;;;1.10;;
66118;SDS011;52912;48.564;9.302;2024-02-23T13:42:51;8.23;;;1.80;;
66118;SDS011;52912;48.564;9.302;2024-02-23T13:45:16;2.20;;;1.30;;
66118;SDS011;52912;48.564;9.302;2024-02-23T13:47:42;6.18;;;1.23;;
66118;SDS011;52912;48.564;9.302;2024-02-23T13:50:08;3.25;;;1.38;;
66118;SDS011;52912;48.564;9.302;2024-02-23T13:52:35;10.25;;;1.40;;
66118;SDS011;52912;48.564;9.302;2024-02-23T13:55:01;6.53;;;1.10;;
66118;SDS011;52912;48.564;9.302;2024-02-23T13:57:26;8.05;;;1.50;;
66118;SDS011;52912;48.564;9.302;2024-02-23T13:59:52;5.82;;;1.58;;
66118;SDS011;52912;48.564;9.302;2024-02-23T14:02:23;8.20;;;1.45;;
66118;SDS011;52912;48.564;9.302;2024-02-23T14:04:50;4.70;;;1.40;;
66118;SDS011;52912;48.564;9.302;2024-02-23T14:07:15;6.13;;;1.65;;
66118;SDS011;52912;48.564;9.302;2024-02-23T14:09:42;10.25;;;1.50;;
66118;SDS011;52912;48.564;9.302;2024-02-23T14:12:08;4.25;;;1.40;;
66118;SDS011;52912;48.564;9.302;2024-02-23T14:14:33;8.27;;;2.28;;
66118;SDS011;52912;48.564;9.302;2024-02-23T14:16:59;9.50;;;2.40;;
66118;SDS011;52912;48.564;9.302;2024-02-23T14:19:24;7.15;;;2.45;;
66118;SDS011;52912;48.564;9.302;2024-02-23T14:21:49;5.95;;;1.92;;
66118;SDS011;52912;48.564;9.302;2024-02-23T14:24:15;3.85;;;1.67;;
66118;SDS011;52912;48.564;9.302;2024-02-23T14:26:42;5.53;;;1.80;;
66118;SDS011;52912;48.564;9.302;2024-02-23T14:29:07;7.57;;;1.92;;
66118;SDS011;52912;48.564;9.302;2024-02-23T14:31:33;5.75;;;1.83;;
66118;SDS011;52912;48.564;9.302;2024-02-23T14:33:58;3.88;;;1.50;;
66118;SDS011;52912;48.564;9.302;2024-02-23T14:36:23;4.22;;;1.50;;
66118;SDS011;52912;48.564;9.302;2024-02-23T14:38:49;4.63;;;1.13;;